createdAt,value
2022-12-11T02:23:28.366Z,98289.22
2022-12-11T02:26:32.282Z,98279.91
2022-12-11T02:29:07.736Z,98284.09
2022-12-11T02:32:00.551Z,98277.78
2022-12-11T02:34:53.476Z,98259.53
2022-12-11T02:37:24.089Z,98257.44
2022-12-11T02:39:55.075Z,98246.25
2022-12-11T02:42:26.607Z,98248.50
2022-12-11T02:44:57.370Z,98233.13
2022-12-11T02:47:28.216Z,98233.25
2022-12-11T02:49:58.567Z,98236.47
2022-12-11T02:52:28.683Z,98237.50
2022-12-11T02:54:59.609Z,98237.50
2022-12-11T02:57:37.325Z,98237.91
2022-12-11T03:00:06.742Z,98232.63
2022-12-11T03:02:33.779Z,98215.19
2022-12-11T03:05:01.152Z,98205.75
2022-12-11T03:07:33.206Z,98202.53
2022-12-11T03:10:00.489Z,98206.94
2022-12-11T03:12:34.225Z,98198.84
2022-12-11T03:15:06.270Z,98206.25
2022-12-11T03:17:38.057Z,98201.63
2022-12-11T03:20:20.110Z,98204.13
2022-12-11T03:22:55.204Z,98204.72
2022-12-11T03:25:26.470Z,98199.31
2022-12-11T03:27:53.308Z,98203.47
2022-12-11T03:30:22.119Z,98207.72
2022-12-11T03:32:51.652Z,98203.31
2022-12-11T03:35:25.890Z,98204.06
2022-12-11T03:37:55.030Z,98225.72
2022-12-11T03:40:23.511Z,98225.59
2022-12-11T03:42:52.933Z,98230.91
2022-12-11T03:45:22.826Z,98218.53
2022-12-11T03:47:52.120Z,98226.31
2022-12-11T03:50:22.998Z,98231.63
2022-12-11T03:52:51.533Z,98229.72
2022-12-11T03:55:21.484Z,98233.22
2022-12-11T03:57:49.066Z,98223.53
2022-12-11T04:00:19.951Z,98221.81
2022-12-11T04:44:38.890Z,98158.97
2022-12-11T04:47:05.001Z,98161.25
2022-12-11T04:49:30.932Z,98161.63
2022-12-11T04:52:02.752Z,98152.38
2022-12-11T04:54:32.947Z,98148.97
2022-12-11T04:57:02.521Z,98137.16
2022-12-11T04:59:30.586Z,98133.00
2022-12-11T05:02:02.532Z,98125.41
2022-12-11T05:04:36.978Z,98115.97
2022-12-11T05:07:04.628Z,98105.34
2022-12-11T05:09:31.619Z,98110.06
2022-12-11T05:11:58.698Z,98123.63
2022-12-11T05:14:28.912Z,98114.31
2022-12-11T05:16:56.112Z,98117.81
2022-12-11T05:19:23.002Z,98109.69
2022-12-11T05:21:50.293Z,98105.19
2022-12-11T05:24:17.371Z,98099.94
2022-12-11T05:26:44.603Z,98102.84
2022-12-11T05:29:11.559Z,98103.69
2022-12-11T05:31:39.077Z,98093.38
2022-12-11T05:34:12.846Z,98093.22
2022-12-11T05:36:43.002Z,98092.16
2022-12-11T05:39:15.036Z,98096.94
2022-12-11T05:41:43.854Z,98090.78
2022-12-11T05:44:15.211Z,98090.19
2022-12-11T05:46:43.970Z,98089.16
2022-12-11T05:49:42.529Z,98095.81
2022-12-11T05:52:11.739Z,98085.28
2022-12-11T05:54:40.406Z,98078.09
2022-12-11T05:57:07.802Z,98076.03
2022-12-11T05:59:35.041Z,98069.06
2022-12-11T06:02:02.295Z,98063.84
2022-12-11T06:04:30.185Z,98053.75
2022-12-11T06:06:57.545Z,98055.41
2022-12-11T06:09:25.010Z,98052.19
2022-12-11T06:11:52.286Z,98042.97
2022-12-11T06:14:20.973Z,98043.97
2022-12-11T06:16:49.278Z,98050.38
2022-12-11T10:40:23.594Z,97474.03
2022-12-11T10:42:55.144Z,97478.03
2022-12-11T10:45:22.771Z,97470.78
2022-12-11T10:47:49.911Z,97452.06
2022-12-11T10:50:26.180Z,97457.13
2022-12-11T10:52:53.527Z,97455.91
2022-12-11T10:55:48.402Z,97447.19
2022-12-11T10:58:25.316Z,97439.28
2022-12-11T11:01:15.323Z,97441.72
2022-12-11T11:04:21.139Z,97433.53
2022-12-11T11:06:49.004Z,97422.28
2022-12-11T11:09:35.551Z,97426.91
2022-12-11T11:12:07.679Z,97422.28
2022-12-11T11:14:34.827Z,97421.66
2022-12-11T11:17:01.875Z,97409.44
2022-12-11T11:19:34.843Z,97411.34
2022-12-11T11:22:14.269Z,97411.44
2022-12-11T11:24:45.207Z,97394.28
2022-12-11T11:27:34.293Z,97392.59
2022-12-11T11:30:08.578Z,97387.53
2022-12-11T11:32:39.937Z,97381.28
2022-12-11T11:35:28.055Z,97374.97
2022-12-11T11:38:04.212Z,97382.47
2022-12-11T11:40:37.654Z,97378.97
2022-12-11T11:43:21.128Z,97363.91
2022-12-11T11:45:59.691Z,97361.56
2022-12-11T11:48:36.219Z,97364.94
2022-12-11T11:51:13.535Z,97358.28
2022-12-11T11:53:41.662Z,97351.59
2022-12-11T11:56:21.289Z,97349.47
2022-12-11T11:59:11.113Z,97339.97
2022-12-11T12:01:38.500Z,97347.06
2022-12-11T12:04:05.733Z,97333.44
2022-12-11T12:06:59.743Z,97329.78
2022-12-11T12:13:44.732Z,97324.84
2022-12-11T12:17:06.825Z,97313.50
2022-12-11T12:20:52.516Z,97315.56
2022-12-11T12:23:34.903Z,97309.19
2022-12-11T12:26:13.812Z,97307.78
2022-12-11T12:28:58.007Z,97309.31
2022-12-11T12:31:40.573Z,97311.84
2022-12-11T12:34:32.190Z,97294.94
2022-12-11T12:37:15.129Z,97300.00
2022-12-11T12:40:18.502Z,97299.00
2022-12-11T12:42:47.692Z,97293.03
2022-12-11T12:45:14.561Z,97296.63
2022-12-11T12:47:46.729Z,97291.97
2022-12-11T12:50:21.180Z,97291.59
2022-12-11T12:52:51.140Z,97286.56
2022-12-11T12:55:25.051Z,97284.28
2022-12-11T12:57:55.853Z,97282.94
2022-12-11T13:00:42.986Z,97281.75
2022-12-11T13:03:20.181Z,97272.78
2022-12-11T13:06:03.920Z,97273.25
2022-12-11T13:08:48.732Z,97274.31
2022-12-11T13:11:17.961Z,97273.00
2022-12-11T13:13:54.461Z,97273.13
2022-12-11T13:16:27.183Z,97269.50
2022-12-11T13:18:54.825Z,97262.22
2022-12-11T13:21:35.882Z,97260.88
2022-12-11T13:24:20.674Z,97263.03
2022-12-11T13:26:49.108Z,97263.16
2022-12-11T13:29:37.854Z,97253.66
2022-12-11T13:32:10.529Z,97256.06
2022-12-11T13:34:39.395Z,97255.81
2022-12-11T13:37:07.504Z,97253.78
2022-12-11T13:39:37.383Z,97246.94
2022-12-11T13:42:20.358Z,97248.22
2022-12-11T13:44:48.674Z,97251.00
2022-12-11T13:47:19.845Z,97236.72
2022-12-11T13:49:53.616Z,97247.88
2022-12-11T13:52:23.476Z,97239.69
2022-12-11T13:54:53.443Z,97238.50
2022-12-11T13:57:30.883Z,97242.78
2022-12-11T13:59:59.813Z,97237.25
2022-12-11T14:02:34.574Z,97238.97
2022-12-11T14:05:08.810Z,97246.38
2022-12-11T14:07:41.438Z,97242.88
2022-12-11T18:35:31.370Z,97435.03
2022-12-11T18:37:57.526Z,97440.19
2022-12-11T18:40:25.631Z,97442.72
2022-12-11T18:42:54.604Z,97459.13
2022-12-11T18:45:22.162Z,97472.44
2022-12-11T18:47:51.898Z,97471.31
2022-12-11T18:50:19.005Z,97460.13
2022-12-11T18:52:45.916Z,97478.06
2022-12-11T18:55:12.978Z,97484.91
2022-12-11T18:57:40.289Z,97494.97
2022-12-11T19:00:08.163Z,97488.97
2022-12-11T19:02:35.712Z,97501.91
2022-12-11T19:05:03.706Z,97505.94
2022-12-11T19:07:30.885Z,97523.09
2022-12-11T19:09:57.848Z,97522.47
2022-12-11T19:12:25.369Z,97533.53
2022-12-11T19:14:52.395Z,97529.22
2022-12-11T19:17:19.284Z,97526.38
2022-12-11T19:19:47.500Z,97538.75
2022-12-11T19:22:15.282Z,97534.72
2022-12-11T19:24:42.136Z,97545.50
2022-12-11T19:27:13.489Z,97551.56
2022-12-11T19:29:40.669Z,97562.13
2022-12-11T19:32:07.466Z,97567.72
2022-12-11T19:34:34.225Z,97576.66
2022-12-11T19:37:01.127Z,97589.19
2022-12-11T19:39:28.258Z,97592.00
2022-12-11T19:41:54.897Z,97595.28
2022-12-11T19:44:21.684Z,97594.88
2022-12-11T19:46:48.487Z,97608.44
2022-12-11T19:49:16.572Z,97596.78
2022-12-11T19:51:45.108Z,97611.59
2022-12-11T19:54:15.004Z,97603.91
2022-12-11T19:56:45.715Z,97622.16
2022-12-11T19:59:16.811Z,97624.94
2022-12-11T20:01:46.899Z,97621.69
2022-12-11T20:04:16.763Z,97626.78
2022-12-11T20:06:45.525Z,97637.19
2022-12-11T20:09:13.258Z,97652.91
2022-12-11T20:11:44.869Z,97646.94
2022-12-11T20:14:21.971Z,97656.50
2022-12-11T20:19:37.466Z,97675.75
2022-12-11T20:22:05.914Z,97664.53
2022-12-11T20:24:33.875Z,97671.69
2022-12-11T20:27:01.197Z,97667.69
2022-12-11T20:29:29.339Z,97665.00
2022-12-11T20:31:57.761Z,97649.50
2022-12-11T20:34:25.776Z,97641.81
2022-12-11T20:36:58.084Z,97633.19
2022-12-11T20:39:29.686Z,97635.91
2022-12-11T20:41:57.165Z,97636.44
2022-12-11T20:44:24.215Z,97651.00
2022-12-11T20:46:51.078Z,97658.16
2022-12-11T20:49:18.671Z,97677.16
2022-12-11T20:51:46.109Z,97670.84
2022-12-11T20:54:13.657Z,97685.75
2022-12-11T20:56:41.188Z,97683.22
2022-12-11T20:59:08.503Z,97698.84
2022-12-11T21:01:35.855Z,97711.38
2022-12-11T21:04:03.544Z,97707.19
2022-12-11T21:06:33.448Z,97702.94
2022-12-11T21:09:03.567Z,97694.53
2022-12-11T21:11:30.793Z,97693.75
2022-12-11T21:13:57.595Z,97684.66
2022-12-11T21:16:25.498Z,97693.44
2022-12-11T21:18:55.483Z,97704.47
2022-12-11T21:21:22.863Z,97704.19
2022-12-11T21:23:50.162Z,97712.59
2022-12-11T21:26:18.088Z,97731.53
2022-12-11T21:28:45.593Z,97734.34
2022-12-11T21:31:17.632Z,97734.63
2022-12-11T21:33:49.951Z,97726.72
2022-12-11T21:36:21.699Z,97732.31
2022-12-11T21:38:54.363Z,97736.81
2022-12-11T21:41:32.325Z,97731.81
2022-12-11T21:45:14.589Z,97729.28
2022-12-11T21:46:49.566Z,97744.44
2022-12-11T21:49:16.411Z,97743.53
2022-12-11T21:51:47.214Z,97739.28
2022-12-11T21:54:19.463Z,97744.25
2022-12-11T21:56:47.056Z,97738.09
2022-12-11T21:59:15.807Z,97733.78
2022-12-11T22:01:46.134Z,97734.66
2022-12-11T22:04:15.487Z,97732.81
2022-12-11T22:06:43.780Z,97728.56
2022-12-11T22:09:18.337Z,97725.81
2022-12-11T23:55:15.829Z,97819.88
2022-12-11T23:57:41.816Z,97817.69
